Time;durP1;ratioP1;P1;durP2;ratioP2;P2;SDS_P1;SDS_P2;PMS_P1;PMS_P2;Temp;Humidity;BMP_temperature;BMP_pressure;BME280_temperature;BME280_humidity;BME280_pressure;Samples;Min_cycle;Max_cycle;Signal;HPM_P1;HPM_P2
2021/01/20 00:01:29;;;;;;;2.47;1.27;;;;;;;;;;4994375;28;20101;-74
2021/01/20 00:03:55;;;;;;;2.80;1.02;;;;;;;;;;5010644;28;20062;-75
2021/01/20 00:06:21;;;;;;;4.28;2.05;;;;;;;;;;4994173;28;20053;-75
2021/01/20 00:08:47;;;;;;;1.50;0.90;;;;;;;;;;5015334;28;20119;-74
2021/01/20 00:11:13;;;;;;;2.25;1.00;;;;;;;;;;5014187;28;20107;-74
2021/01/20 00:13:39;;;;;;;2.30;1.35;;;;;;;;;;5014495;28;20077;-74
2021/01/20 00:16:05;;;;;;;1.33;1.00;;;;;;;;;;5015176;28;20472;-75
2021/01/20 00:18:31;;;;;;;3.70;1.02;;;;;;;;;;5014168;28;20050;-75
2021/01/20 00:20:59;;;;;;;3.80;1.10;;;;;;;;;;5015742;28;20092;-74
2021/01/20 00:23:25;;;;;;;1.23;1.10;;;;;;;;;;5013988;28;20049;-73
2021/01/20 00:25:51;;;;;;;2.58;1.35;;;;;;;;;;5014988;28;20104;-74
2021/01/20 00:28:17;;;;;;;2.50;1.23;;;;;;;;;;5013964;28;20057;-74
2021/01/20 00:30:43;;;;;;;1.17;1.05;;;;;;;;;;5014042;28;20045;-74
2021/01/20 00:33:09;;;;;;;2.95;1.30;;;;;;;;;;4997594;28;20053;-74
2021/01/20 00:35:35;;;;;;;1.92;1.27;;;;;;;;;;5013720;28;20054;-74
2021/01/20 00:38:01;;;;;;;2.47;1.10;;;;;;;;;;5014980;28;20394;-74
2021/01/20 00:40:27;;;;;;;1.50;1.10;;;;;;;;;;5014041;28;20104;-73
2021/01/20 00:42:53;;;;;;;1.77;1.10;;;;;;;;;;5013629;28;20077;-74
2021/01/20 00:45:20;;;;;;;2.38;1.27;;;;;;;;;;5013444;28;20104;-73
2021/01/20 00:47:46;;;;;;;2.45;1.00;;;;;;;;;;5013830;28;20468;-74
2021/01/20 00:50:12;;;;;;;1.77;0.93;;;;;;;;;;5014779;28;20054;-74
2021/01/20 00:52:38;;;;;;;2.13;1.40;;;;;;;;;;5014549;28;20046;-74
2021/01/20 00:55:06;;;;;;;2.65;1.25;;;;;;;;;;5013487;28;20497;-74
2021/01/20 00:57:32;;;;;;;3.15;1.35;;;;;;;;;;5012915;28;20050;-74
2021/01/20 00:59:58;;;;;;;2.92;1.60;;;;;;;;;;5013683;28;20054;-74
2021/01/20 01:02:24;;;;;;;1.70;1.00;;;;;;;;;;5013560;28;20111;-73
2021/01/20 01:04:50;;;;;;;2.65;1.80;;;;;;;;;;5014822;28;20053;-74
2021/01/20 01:07:17;;;;;;;1.67;1.00;;;;;;;;;;4996951;28;20053;-74
2021/01/20 01:09:43;;;;;;;1.70;1.10;;;;;;;;;;5013445;28;20100;-74
2021/01/20 01:12:09;;;;;;;1.90;1.15;;;;;;;;;;5013517;28;20104;-74
2021/01/20 01:14:36;;;;;;;1.90;1.10;;;;;;;;;;5013309;28;20185;-74
2021/01/20 01:17:02;;;;;;;2.25;0.90;;;;;;;;;;4996798;28;20095;-74
2021/01/20 01:19:28;;;;;;;2.05;1.30;;;;;;;;;;5012255;28;20046;-74
2021/01/20 01:21:54;;;;;;;1.33;0.77;;;;;;;;;;5014291;28;20054;-74
2021/01/20 01:24:20;;;;;;;2.00;1.02;;;;;;;;;;5014149;28;20053;-74
2021/01/20 01:26:46;;;;;;;1.88;1.00;;;;;;;;;;5012673;28;20590;-74
2021/01/20 01:29:12;;;;;;;2.78;1.05;;;;;;;;;;5012957;28;20058;-73
2021/01/20 01:31:38;;;;;;;1.63;1.08;;;;;;;;;;5014147;28;20054;-74
2021/01/20 01:34:04;;;;;;;5.18;1.55;;;;;;;;;;5012872;28;20057;-74
2021/01/20 01:36:31;;;;;;;1.80;1.02;;;;;;;;;;5013959;28;20136;-74
2021/01/20 01:38:57;;;;;;;1.75;1.15;;;;;;;;;;5012825;28;20096;-74
2021/01/20 01:41:23;;;;;;;2.53;1.30;;;;;;;;;;5013980;28;20563;-74
2021/01/20 01:43:56;;;;;;;1.58;1.17;;;;;;;;;;5014082;28;20093;-74
2021/01/20 01:46:22;;;;;;;3.03;1.63;;;;;;;;;;4996292;28;20502;-73
2021/01/20 01:48:49;;;;;;;2.30;1.25;;;;;;;;;;4996566;28;20050;-75
2021/01/20 01:51:15;;;;;;;6.40;2.17;;;;;;;;;;4996268;28;20107;-74
2021/01/20 01:53:41;;;;;;;1.83;1.02;;;;;;;;;;5012566;28;20080;-74
2021/01/20 01:56:07;;;;;;;1.55;1.10;;;;;;;;;;4995710;28;20057;-74
2021/01/20 01:58:33;;;;;;;1.50;1.25;;;;;;;;;;4996380;28;20128;-74
2021/01/20 02:00:59;;;;;;;1.23;0.98;;;;;;;;;;5012474;28;20046;-75
2021/01/20 02:03:25;;;;;;;1.08;0.88;;;;;;;;;;4996242;28;20049;-75
2021/01/20 02:05:51;;;;;;;1.63;1.15;;;;;;;;;;5012162;28;20058;-73
2021/01/20 02:08:17;;;;;;;1.55;0.88;;;;;;;;;;5013562;28;20057;-74
2021/01/20 02:10:43;;;;;;;1.83;1.38;;;;;;;;;;5012377;28;20100;-74
2021/01/20 02:13:28;;;;;;;2.08;1.10;;;;;;;;;;4995900;28;20054;-74
2021/01/20 02:16:15;;;;;;;1.70;1.20;;;;;;;;;;4995935;28;20058;-74
2021/01/20 02:18:41;;;;;;;2.05;0.80;;;;;;;;;;4996642;28;20050;-74
2021/01/20 02:21:26;;;;;;;1.23;0.80;;;;;;;;;;4995969;28;20131;-74
2021/01/20 02:23:52;;;;;;;1.77;1.20;;;;;;;;;;5012960;28;20050;-73
2021/01/20 02:27:03;;;;;;;1.80;1.00;;;;;;;;;;4995588;28;20054;-74
2021/01/20 02:29:45;;;;;;;1.60;1.00;;;;;;;;;;4948866;29;20051;-75
2021/01/20 02:32:11;;;;;;;2.40;1.08;;;;;;;;;;5001078;28;20047;-74
2021/01/20 02:34:37;;;;;;;1.90;1.13;;;;;;;;;;4976151;28;20394;-75
2021/01/20 02:37:04;;;;;;;1.83;1.10;;;;;;;;;;4975938;28;20494;-74
2021/01/20 02:39:30;;;;;;;2.22;1.10;;;;;;;;;;4972799;28;20046;-75
2021/01/20 02:42:02;;;;;;;2.50;1.25;;;;;;;;;;5012787;28;20069;-73
2021/01/20 02:44:28;;;;;;;1.30;1.20;;;;;;;;;;4995522;28;20054;-73
2021/01/20 02:46:54;;;;;;;2.95;1.10;;;;;;;;;;4995027;28;20058;-73
2021/01/20 02:49:20;;;;;;;2.17;1.67;;;;;;;;;;4995126;28;20072;-73
2021/01/20 02:52:00;;;;;;;3.28;1.67;;;;;;;;;;5011551;28;20467;-74
2021/01/20 02:54:26;;;;;;;2.22;1.25;;;;;;;;;;5011561;28;20053;-74
2021/01/20 02:56:52;;;;;;;2.60;1.30;;;;;;;;;;4995009;28;20053;-73
2021/01/20 02:59:20;;;;;;;4.00;1.30;;;;;;;;;;4979027;28;20080;-74
2021/01/20 03:01:49;;;;;;;2.50;1.48;;;;;;;;;;4995284;28;20053;-74
2021/01/20 03:04:16;;;;;;;2.30;1.38;;;;;;;;;;4995355;28;20060;-74
2021/01/20 03:06:42;;;;;;;3.47;1.60;;;;;;;;;;4995030;28;20060;-74
2021/01/20 03:09:08;;;;;;;2.05;1.20;;;;;;;;;;5011263;28;20050;-74
2021/01/20 03:11:47;;;;;;;2.38;1.30;;;;;;;;;;5011166;28;20053;-75
2021/01/20 03:14:14;;;;;;;2.25;1.58;;;;;;;;;;4994999;28;20061;-75
2021/01/20 03:16:40;;;;;;;2.28;1.40;;;;;;;;;;4994799;28;20133;-75
2021/01/20 03:19:06;;;;;;;3.05;1.60;;;;;;;;;;5010999;28;20049;-75
2021/01/20 03:21:34;;;;;;;2.88;1.25;;;;;;;;;;5011247;28;20433;-75
2021/01/20 03:24:00;;;;;;;1.65;1.30;;;;;;;;;;4995024;28;20054;-75
2021/01/20 03:26:26;;;;;;;1.75;1.13;;;;;;;;;;5010732;28;20100;-75
2021/01/20 03:28:52;;;;;;;1.75;1.33;;;;;;;;;;5012063;28;20531;-75
2021/01/20 03:31:19;;;;;;;4.03;1.77;;;;;;;;;;5010884;28;20057;-75
2021/01/20 03:33:45;;;;;;;2.15;1.48;;;;;;;;;;5010790;28;20101;-75
2021/01/20 03:36:11;;;;;;;2.70;1.30;;;;;;;;;;5011782;28;20050;-75
2021/01/20 03:38:37;;;;;;;2.45;1.77;;;;;;;;;;4994570;28;20046;-75
2021/01/20 03:41:03;;;;;;;2.22;1.50;;;;;;;;;;5010787;28;20116;-75
2021/01/20 03:43:29;;;;;;;2.55;1.25;;;;;;;;;;5011592;28;20104;-75
2021/01/20 03:45:55;;;;;;;2.67;1.38;;;;;;;;;;5010433;28;20054;-75
2021/01/20 03:48:21;;;;;;;2.17;1.30;;;;;;;;;;4994600;28;20058;-75
2021/01/20 03:50:48;;;;;;;2.28;1.67;;;;;;;;;;5011899;28;20046;-75
2021/01/20 03:53:14;;;;;;;1.88;1.27;;;;;;;;;;4994449;28;20050;-75
2021/01/20 03:55:40;;;;;;;3.42;1.77;;;;;;;;;;5007531;28;20093;-75
2021/01/20 03:58:06;;;;;;;2.05;1.40;;;;;;;;;;4991151;28;20516;-75
2021/01/20 04:00:32;;;;;;;3.15;1.45;;;;;;;;;;4992550;28;20050;-75
2021/01/20 04:02:58;;;;;;;2.40;1.33;;;;;;;;;;4990961;28;20054;-75
2021/01/20 04:05:24;;;;;;;2.97;1.63;;;;;;;;;;4990836;28;20112;-74
2021/01/20 04:07:51;;;;;;;2.38;1.00;;;;;;;;;;4991023;28;20571;-74
2021/01/20 04:10:17;;;;;;;2.15;1.65;;;;;;;;;;4990991;28;20046;-74
2021/01/20 04:12:43;;;;;;;2.58;1.23;;;;;;;;;;4990867;28;20050;-74
2021/01/20 04:15:09;;;;;;;2.42;1.17;;;;;;;;;;4991034;28;20050;-74
2021/01/20 04:17:36;;;;;;;1.50;1.20;;;;;;;;;;4974982;28;20109;-74
2021/01/20 04:20:03;;;;;;;2.88;1.42;;;;;;;;;;4958976;28;20053;-75
2021/01/20 04:22:29;;;;;;;2.40;1.10;;;;;;;;;;4977518;28;20100;-74
2021/01/20 04:24:56;;;;;;;2.95;1.35;;;;;;;;;;4999999;28;20054;-74
2021/01/20 04:27:22;;;;;;;2.53;1.55;;;;;;;;;;4990819;28;20101;-75
2021/01/20 04:29:48;;;;;;;1.88;1.30;;;;;;;;;;4974803;28;20096;-75
2021/01/20 04:32:14;;;;;;;2.53;1.10;;;;;;;;;;4990674;28;20055;-75
2021/01/20 04:34:41;;;;;;;2.47;1.35;;;;;;;;;;4991949;28;20085;-74
2021/01/20 04:37:07;;;;;;;1.77;1.17;;;;;;;;;;4991758;28;20050;-74
2021/01/20 04:39:33;;;;;;;2.08;1.23;;;;;;;;;;4992098;28;20092;-74
2021/01/20 04:41:59;;;;;;;1.38;1.13;;;;;;;;;;5011718;28;20054;-74
2021/01/20 04:44:25;;;;;;;2.38;1.20;;;;;;;;;;4974602;28;20465;-74
2021/01/20 04:46:52;;;;;;;1.65;1.10;;;;;;;;;;5006707;28;20050;-74
2021/01/20 04:49:19;;;;;;;1.45;1.00;;;;;;;;;;5006887;28;20077;-74
2021/01/20 04:51:47;;;;;;;1.67;1.50;;;;;;;;;;5016726;28;20508;-75
2021/01/20 04:54:13;;;;;;;1.83;1.13;;;;;;;;;;4994891;28;20049;-74
2021/01/20 04:56:39;;;;;;;1.98;1.10;;;;;;;;;;5013443;28;20049;-74
2021/01/20 04:59:06;;;;;;;1.98;1.17;;;;;;;;;;5014891;28;20054;-75
2021/01/20 05:01:32;;;;;;;2.30;1.13;;;;;;;;;;5013716;28;20118;-75
2021/01/20 05:04:00;;;;;;;1.20;0.98;;;;;;;;;;5013430;28;20115;-75
2021/01/20 05:06:28;;;;;;;2.40;1.20;;;;;;;;;;4981060;28;20566;-75
2021/01/20 05:08:54;;;;;;;2.33;1.08;;;;;;;;;;5013604;28;20058;-75
2021/01/20 05:11:40;;;;;;;1.58;1.20;;;;;;;;;;5013366;28;20709;-74
2021/01/20 05:14:17;;;;;;;1.83;1.02;;;;;;;;;;4998629;28;20053;-74
2021/01/20 05:16:49;;;;;;;1.35;0.82;;;;;;;;;;5013198;28;20085;-73
2021/01/20 05:19:15;;;;;;;1.55;0.95;;;;;;;;;;5014508;28;20045;-74
2021/01/20 05:22:04;;;;;;;1.48;0.90;;;;;;;;;;5013337;28;20077;-74
2021/01/20 05:24:30;;;;;;;1.13;1.02;;;;;;;;;;5000003;28;20576;-74
2021/01/20 05:26:56;;;;;;;1.17;0.80;;;;;;;;;;5012956;28;20054;-74
2021/01/20 05:29:23;;;;;;;1.40;1.15;;;;;;;;;;4980753;28;20615;-75
2021/01/20 05:31:49;;;;;;;1.42;1.00;;;;;;;;;;5012913;28;20045;-75
2021/01/20 05:34:34;;;;;;;1.33;1.00;;;;;;;;;;5014092;28;20054;-74
2021/01/20 05:37:04;;;;;;;2.33;1.23;;;;;;;;;;5013831;28;20046;-74
2021/01/20 05:39:31;;;;;;;2.78;1.40;;;;;;;;;;5014212;28;20089;-74
2021/01/20 05:42:02;;;;;;;3.25;1.58;;;;;;;;;;4980586;28;20493;-74
2021/01/20 05:44:29;;;;;;;1.38;1.10;;;;;;;;;;4997203;28;20081;-75
2021/01/20 05:46:55;;;;;;;1.48;0.90;;;;;;;;;;4996246;28;20467;-75
2021/01/20 05:49:26;;;;;;;3.22;0.90;;;;;;;;;;5013980;28;20078;-75
2021/01/20 05:51:52;;;;;;;0.98;0.85;;;;;;;;;;5013760;28;20046;-75
2021/01/20 05:54:29;;;;;;;1.98;0.82;;;;;;;;;;5012571;28;20054;-75
2021/01/20 05:57:08;;;;;;;1.05;0.90;;;;;;;;;;4996204;28;20493;-75
2021/01/20 05:59:35;;;;;;;1.60;1.20;;;;;;;;;;5012446;28;20101;-75
2021/01/20 06:02:02;;;;;;;2.20;0.93;;;;;;;;;;5013390;28;20049;-75
2021/01/20 06:04:30;;;;;;;1.98;0.95;;;;;;;;;;4996189;28;20077;-75
2021/01/20 06:06:56;;;;;;;3.50;1.55;;;;;;;;;;5011948;28;20096;-75
2021/01/20 06:09:24;;;;;;;1.75;1.10;;;;;;;;;;5012199;28;20057;-75
2021/01/20 06:11:50;;;;;;;1.35;1.20;;;;;;;;;;5013582;28;20468;-75
2021/01/20 06:14:16;;;;;;;1.38;1.17;;;;;;;;;;5013244;28;20049;-73
2021/01/20 06:16:42;;;;;;;2.53;1.30;;;;;;;;;;5011982;28;20063;-74
2021/01/20 06:19:09;;;;;;;5.15;1.50;;;;;;;;;;4995863;28;20559;-74
2021/01/20 06:21:36;;;;;;;2.13;1.30;;;;;;;;;;5012304;28;20049;-74
2021/01/20 06:24:12;;;;;;;4.72;1.20;;;;;;;;;;4995502;28;20464;-74
2021/01/20 06:26:57;;;;;;;3.35;1.30;;;;;;;;;;5011907;28;20052;-74
2021/01/20 06:29:26;;;;;;;2.78;1.20;;;;;;;;;;4961089;28;20228;-74
2021/01/20 06:31:52;;;;;;;1.10;0.98;;;;;;;;;;4976458;28;20109;-74
2021/01/20 06:34:19;;;;;;;1.65;1.00;;;;;;;;;;4976152;28;20058;-74
2021/01/20 06:36:45;;;;;;;2.10;1.40;;;;;;;;;;4993216;28;20144;-74
2021/01/20 06:39:26;;;;;;;2.08;1.10;;;;;;;;;;4976103;28;20054;-73
2021/01/20 06:41:52;;;;;;;2.47;1.20;;;;;;;;;;4993376;28;20050;-73
2021/01/20 06:44:18;;;;;;;1.02;0.80;;;;;;;;;;4992022;28;20061;-73
2021/01/20 06:46:57;;;;;;;1.15;0.88;;;;;;;;;;4975790;28;20054;-73
2021/01/20 06:49:30;;;;;;;1.17;0.85;;;;;;;;;;4993268;28;20054;-74
2021/01/20 06:52:07;;;;;;;1.33;0.95;;;;;;;;;;4991863;28;20050;-73
2021/01/20 06:54:36;;;;;;;1.35;1.20;;;;;;;;;;4991975;28;20090;-73
2021/01/20 06:57:02;;;;;;;3.03;1.00;;;;;;;;;;4975616;28;20054;-73
2021/01/20 06:59:30;;;;;;;2.60;1.52;;;;;;;;;;4975972;28;20050;-73
2021/01/20 07:02:02;;;;;;;1.45;1.13;;;;;;;;;;4959854;28;20093;-73
2021/01/20 07:04:38;;;;;;;1.92;1.25;;;;;;;;;;4993081;28;20520;-73
2021/01/20 07:07:12;;;;;;;3.28;1.30;;;;;;;;;;4992637;28;20069;-73
2021/01/20 07:09:51;;;;;;;2.90;1.50;;;;;;;;;;4959746;28;20085;-73
2021/01/20 07:12:24;;;;;;;3.22;1.60;;;;;;;;;;4992685;28;20054;-73
2021/01/20 07:14:50;;;;;;;;;;;;;;;;;;4976462;28;20081;-73
2021/01/20 07:17:17;;;;;;;1.95;1.55;;;;;;;;;;4993784;28;20012;-73
2021/01/20 07:19:44;;;;;;;3.88;1.83;;;;;;;;;;4995298;28;20045;-74
2021/01/20 07:22:11;;;;;;;5.78;1.77;;;;;;;;;;4994885;28;20049;-73
2021/01/20 07:24:37;;;;;;;2.47;1.85;;;;;;;;;;4994762;28;20081;-73
2021/01/20 07:27:07;;;;;;;3.35;1.80;;;;;;;;;;5011754;28;20049;-73
2021/01/20 07:29:33;;;;;;;4.35;3.13;;;;;;;;;;4994718;28;20067;-73
2021/01/20 07:32:00;;;;;;;4.18;2.00;;;;;;;;;;4993335;28;20555;-74
2021/01/20 07:34:51;;;;;;;4.32;2.72;;;;;;;;;;4992774;28;20054;-73
2021/01/20 07:37:17;;;;;;;4.00;2.17;;;;;;;;;;5008440;28;20088;-73
2021/01/20 07:39:44;;;;;;;3.05;1.92;;;;;;;;;;4992659;28;20065;-72
2021/01/20 07:42:11;;;;;;;2.58;1.70;;;;;;;;;;4992517;28;20046;-72
2021/01/20 07:44:48;;;;;;;2.83;1.70;;;;;;;;;;5009581;28;20128;-75
2021/01/20 07:47:14;;;;;;;3.28;1.67;;;;;;;;;;4992161;28;20111;-72
2021/01/20 07:49:52;;;;;;;3.90;1.88;;;;;;;;;;5009893;28;20501;-73
2021/01/20 07:52:21;;;;;;;3.22;1.67;;;;;;;;;;4992234;28;20089;-73
2021/01/20 07:54:50;;;;;;;2.97;1.90;;;;;;;;;;5008637;28;20456;-73
2021/01/20 07:57:18;;;;;;;2.53;1.63;;;;;;;;;;5008541;28;20104;-73
2021/01/20 07:59:44;;;;;;;2.25;1.52;;;;;;;;;;5008423;28;20078;-72
2021/01/20 08:02:17;;;;;;;2.22;1.70;;;;;;;;;;5008616;28;20105;-73
2021/01/20 08:04:43;;;;;;;5.28;1.60;;;;;;;;;;4993300;28;20058;-73
2021/01/20 08:07:12;;;;;;;2.67;2.20;;;;;;;;;;5008453;28;20057;-73
2021/01/20 08:09:40;;;;;;;2.88;1.65;;;;;;;;;;5008631;28;20105;-73
2021/01/20 08:12:08;;;;;;;2.20;1.50;;;;;;;;;;5008173;28;20135;-73
2021/01/20 08:14:36;;;;;;;2.67;1.55;;;;;;;;;;4992746;28;20104;-73
2021/01/20 08:17:03;;;;;;;2.22;1.75;;;;;;;;;;4992411;28;20128;-73
2021/01/20 08:19:31;;;;;;;5.30;1.75;;;;;;;;;;4992110;28;20512;-73
2021/01/20 08:22:02;;;;;;;2.45;1.95;;;;;;;;;;4992066;28;20053;-73
2021/01/20 08:24:28;;;;;;;3.47;1.75;;;;;;;;;;4991672;28;20108;-73
2021/01/20 08:26:56;;;;;;;2.35;1.73;;;;;;;;;;4988706;28;20058;-71
2021/01/20 08:29:22;;;;;;;3.20;1.55;;;;;;;;;;4991755;28;20120;-71
2021/01/20 08:32:10;;;;;;;2.55;1.77;;;;;;;;;;4987604;28;20109;-70
2021/01/20 08:34:41;;;;;;;4.13;2.13;;;;;;;;;;4991922;28;20065;-71
2021/01/20 08:37:20;;;;;;;2.50;1.98;;;;;;;;;;4994082;28;20081;-74
2021/01/20 08:39:55;;;;;;;5.93;2.33;;;;;;;;;;4979377;28;20073;-72
2021/01/20 08:42:29;;;;;;;4.32;2.15;;;;;;;;;;4994361;28;20136;-73
2021/01/20 08:45:12;;;;;;;2.72;1.67;;;;;;;;;;4987271;28;20116;-73
2021/01/20 08:47:55;;;;;;;3.72;2.30;;;;;;;;;;5002139;28;20045;-73
2021/01/20 08:50:28;;;;;;;4.55;2.25;;;;;;;;;;4992068;28;20065;-76
2021/01/20 08:52:56;;;;;;;5.03;2.38;;;;;;;;;;5015942;28;20080;-73
2021/01/20 08:55:30;;;;;;;4.28;2.20;;;;;;;;;;4984337;28;20096;-73
2021/01/20 08:58:15;;;;;;;;;;;;;;;;;;5003947;28;20066;-73
2021/01/20 09:01:00;;;;;;;2.85;1.92;;;;;;;;;;5010827;28;19972;-73
2021/01/20 09:03:27;;;;;;;3.17;2.20;;;;;;;;;;5005900;28;20062;-73
2021/01/20 09:05:55;;;;;;;4.65;2.58;;;;;;;;;;4994812;28;20045;-71
2021/01/20 09:08:22;;;;;;;3.40;2.00;;;;;;;;;;4992819;28;20468;-73
2021/01/20 09:10:49;;;;;;;3.20;2.22;;;;;;;;;;4999492;28;20051;-71
2021/01/20 09:13:19;;;;;;;4.65;2.20;;;;;;;;;;5003672;28;20054;-74
2021/01/20 09:15:50;;;;;;;5.65;2.22;;;;;;;;;;5001718;28;20042;-72
2021/01/20 09:18:17;;;;;;;3.63;2.00;;;;;;;;;;4994307;28;20100;-72
2021/01/20 09:20:44;;;;;;;4.53;2.33;;;;;;;;;;5004629;28;20074;-71
2021/01/20 09:23:10;;;;;;;3.20;2.30;;;;;;;;;;4998654;28;20070;-72
2021/01/20 09:25:36;;;;;;;3.35;2.08;;;;;;;;;;5036802;23;20041;-71
2021/01/20 09:28:03;;;;;;;2.70;1.75;;;;;;;;;;5048992;28;20049;-72
2021/01/20 09:30:30;;;;;;;3.35;2.17;;;;;;;;;;5034774;28;20102;-70
2021/01/20 09:32:56;;;;;;;3.83;2.50;;;;;;;;;;5052042;28;20079;-70
2021/01/20 09:35:23;;;;;;;4.07;2.50;;;;;;;;;;5043143;28;20061;-71
2021/01/20 09:37:49;;;;;;;3.28;2.20;;;;;;;;;;5031354;28;20050;-71
2021/01/20 09:40:17;;;;;;;2.97;2.47;;;;;;;;;;5030145;28;20045;-72
2021/01/20 09:42:47;;;;;;;3.10;2.17;;;;;;;;;;5032080;28;20087;-71
2021/01/20 09:45:14;;;;;;;5.18;2.50;;;;;;;;;;5028529;28;20076;-71
2021/01/20 09:47:42;;;;;;;4.70;2.70;;;;;;;;;;5032017;28;20103;-71
2021/01/20 09:50:10;;;;;;;4.60;2.92;;;;;;;;;;5031754;28;20050;-70
2021/01/20 09:52:36;;;;;;;4.68;3.42;;;;;;;;;;5032245;28;20041;-70
2021/01/20 09:55:04;;;;;;;5.13;2.30;;;;;;;;;;5031519;28;20049;-71
2021/01/20 09:57:30;;;;;;;5.03;2.70;;;;;;;;;;5031454;28;20104;-70
2021/01/20 09:59:56;;;;;;;8.48;2.30;;;;;;;;;;5029656;28;20882;-71
2021/01/20 10:02:22;;;;;;;4.30;2.25;;;;;;;;;;5032105;28;20045;-71
2021/01/20 10:04:48;;;;;;;3.90;2.38;;;;;;;;;;5031664;28;20049;-70
2021/01/20 10:07:15;;;;;;;6.72;2.80;;;;;;;;;;5031192;28;20466;-71
2021/01/20 10:09:41;;;;;;;7.10;3.00;;;;;;;;;;5029253;28;20107;-70
2021/01/20 10:12:08;;;;;;;4.03;2.83;;;;;;;;;;5031491;28;20507;-72
2021/01/20 10:14:35;;;;;;;6.35;3.45;;;;;;;;;;5029832;28;20053;-70
2021/01/20 10:17:01;;;;;;;4.32;2.92;;;;;;;;;;5030844;28;20131;-73
2021/01/20 10:19:28;;;;;;;3.85;2.45;;;;;;;;;;5030716;28;20132;-71
2021/01/20 10:21:54;;;;;;;3.40;2.67;;;;;;;;;;5031294;28;20123;-71
2021/01/20 10:24:20;;;;;;;4.05;2.47;;;;;;;;;;5031116;28;20507;-71
2021/01/20 10:26:46;;;;;;;5.35;2.35;;;;;;;;;;5026726;28;20116;-71
2021/01/20 10:29:12;;;;;;;6.72;3.53;;;;;;;;;;5030458;28;20049;-71
2021/01/20 10:31:39;;;;;;;8.00;2.58;;;;;;;;;;5031131;28;20053;-71
2021/01/20 10:34:06;;;;;;;3.22;2.63;;;;;;;;;;5031165;28;20052;-71
2021/01/20 10:36:33;;;;;;;4.53;2.30;;;;;;;;;;5030462;28;20100;-71
2021/01/20 10:38:59;;;;;;;6.30;3.00;;;;;;;;;;5031195;28;20103;-71
2021/01/20 10:41:25;;;;;;;4.28;2.50;;;;;;;;;;5030015;28;20111;-70
2021/01/20 10:43:53;;;;;;;6.35;4.10;;;;;;;;;;5031055;28;20050;-71
2021/01/20 10:46:25;;;;;;;4.28;3.10;;;;;;;;;;5028724;28;20045;-71
2021/01/20 10:48:55;;;;;;;4.53;2.50;;;;;;;;;;5031107;28;20500;-71
2021/01/20 10:51:22;;;;;;;4.30;2.92;;;;;;;;;;5018768;28;20124;-70
2021/01/20 10:53:48;;;;;;;5.65;2.40;;;;;;;;;;5013685;28;20524;-70
2021/01/20 10:56:14;;;;;;;3.80;2.50;;;;;;;;;;5012439;28;20505;-71
2021/01/20 10:58:40;;;;;;;4.22;2.63;;;;;;;;;;5012638;28;20058;-72
2021/01/20 11:01:07;;;;;;;3.40;2.50;;;;;;;;;;5012912;28;20093;-71
2021/01/20 11:03:33;;;;;;;4.55;3.05;;;;;;;;;;5031977;28;20057;-70
2021/01/20 11:05:59;;;;;;;4.20;2.75;;;;;;;;;;5031853;28;20049;-71
2021/01/20 11:08:25;;;;;;;3.65;2.65;;;;;;;;;;5030973;28;20057;-71
2021/01/20 11:10:51;;;;;;;6.57;3.03;;;;;;;;;;5032107;28;20096;-71
2021/01/20 11:13:17;;;;;;;5.43;3.20;;;;;;;;;;5013232;28;20053;-71
2021/01/20 11:15:46;;;;;;;4.55;2.72;;;;;;;;;;5011826;28;20104;-72
2021/01/20 11:18:17;;;;;;;5.05;2.70;;;;;;;;;;4995329;28;20061;-72
2021/01/20 11:20:44;;;;;;;6.18;3.10;;;;;;;;;;5022481;28;20462;-71
2021/01/20 11:23:11;;;;;;;4.18;3.65;;;;;;;;;;5028242;28;20092;-71
2021/01/20 11:25:39;;;;;;;4.30;2.88;;;;;;;;;;5003567;28;20115;-71
2021/01/20 11:28:05;;;;;;;4.10;2.95;;;;;;;;;;5016593;28;20103;-71
2021/01/20 11:30:31;;;;;;;5.07;3.00;;;;;;;;;;5029972;28;20081;-72
2021/01/20 11:32:57;;;;;;;6.40;3.17;;;;;;;;;;5027490;28;20076;-71
2021/01/20 11:35:24;;;;;;;6.53;3.70;;;;;;;;;;5028617;28;20408;-72
2021/01/20 11:37:50;;;;;;;6.20;3.65;;;;;;;;;;5027095;28;20045;-72
2021/01/20 11:40:16;;;;;;;4.00;2.70;;;;;;;;;;5028270;28;20135;-72
2021/01/20 11:42:42;;;;;;;7.30;3.45;;;;;;;;;;5028239;28;20104;-72
2021/01/20 11:45:09;;;;;;;9.93;2.58;;;;;;;;;;5027711;28;20080;-72
2021/01/20 11:47:37;;;;;;;4.15;3.08;;;;;;;;;;5029132;28;20123;-69
2021/01/20 11:50:04;;;;;;;3.72;2.72;;;;;;;;;;5025363;28;20455;-72
2021/01/20 11:52:30;;;;;;;4.25;2.58;;;;;;;;;;5025255;28;20544;-72
2021/01/20 11:54:56;;;;;;;6.38;2.95;;;;;;;;;;5026086;28;20107;-73
2021/01/20 11:57:22;;;;;;;4.28;2.88;;;;;;;;;;5027734;28;20052;-73
2021/01/20 11:59:49;;;;;;;5.03;2.90;;;;;;;;;;5026290;28;20046;-72
2021/01/20 12:02:15;;;;;;;8.45;3.50;;;;;;;;;;5027927;28;20045;-72
2021/01/20 12:04:44;;;;;;;6.22;2.88;;;;;;;;;;5030445;28;20053;-73
2021/01/20 12:07:11;;;;;;;4.82;2.55;;;;;;;;;;5031739;28;20544;-72
2021/01/20 12:09:37;;;;;;;6.70;2.90;;;;;;;;;;5030242;28;20111;-72
2021/01/20 12:12:03;;;;;;;3.78;2.67;;;;;;;;;;5030987;28;20077;-72
2021/01/20 12:14:29;;;;;;;5.15;3.05;;;;;;;;;;5031582;28;20057;-73
2021/01/20 12:16:55;;;;;;;5.10;2.85;;;;;;;;;;5030847;28;20057;-71
2021/01/20 12:19:21;;;;;;;6.38;3.38;;;;;;;;;;5031696;28;20426;-68
2021/01/20 12:21:47;;;;;;;4.32;3.25;;;;;;;;;;5030623;28;20309;-70
2021/01/20 12:24:14;;;;;;;6.82;3.83;;;;;;;;;;5030872;28;20187;-70
2021/01/20 12:26:40;;;;;;;5.38;3.17;;;;;;;;;;5031042;28;20137;-72
2021/01/20 12:29:06;;;;;;;4.22;3.20;;;;;;;;;;5031082;28;20107;-71
2021/01/20 12:31:32;;;;;;;5.90;3.55;;;;;;;;;;5031749;28;20073;-74
2021/01/20 12:33:58;;;;;;;7.85;4.07;;;;;;;;;;5031403;28;20053;-72
2021/01/20 12:36:25;;;;;;;5.45;3.80;;;;;;;;;;5030980;28;20170;-73
2021/01/20 12:38:52;;;;;;;5.97;3.67;;;;;;;;;;5030201;28;20079;-75
2021/01/20 12:41:18;;;;;;;6.30;3.60;;;;;;;;;;5030651;28;20045;-72
2021/01/20 12:43:44;;;;;;;5.53;3.63;;;;;;;;;;5031425;28;20046;-74
2021/01/20 12:46:10;;;;;;;7.35;3.70;;;;;;;;;;5030598;28;20099;-72
2021/01/20 12:48:36;;;;;;;6.00;3.38;;;;;;;;;;5031606;28;20045;-70
2021/01/20 12:51:03;;;;;;;6.85;4.22;;;;;;;;;;5029367;28;20048;-72
2021/01/20 12:53:29;;;;;;;8.95;4.15;;;;;;;;;;5031618;28;20617;-71
2021/01/20 12:55:55;;;;;;;6.45;4.00;;;;;;;;;;5030775;28;20308;-71
2021/01/20 12:58:21;;;;;;;5.18;3.30;;;;;;;;;;5030029;28;20293;-71
2021/01/20 13:00:48;;;;;;;5.25;3.50;;;;;;;;;;5029821;28;20069;-72
2021/01/20 13:03:14;;;;;;;5.97;3.92;;;;;;;;;;5026801;28;20053;-73
2021/01/20 13:05:40;;;;;;;5.93;3.65;;;;;;;;;;5030282;28;20496;-74
2021/01/20 13:08:06;;;;;;;5.30;3.60;;;;;;;;;;5029617;28;20049;-73
2021/01/20 13:10:32;;;;;;;5.43;3.10;;;;;;;;;;5030534;28;20049;-74
2021/01/20 13:12:58;;;;;;;6.63;3.63;;;;;;;;;;5028983;28;20054;-73
2021/01/20 13:15:25;;;;;;;3.47;3.17;;;;;;;;;;5028365;28;20436;-72
2021/01/20 13:17:56;;;;;;;4.93;3.20;;;;;;;;;;5029165;28;20049;-72
2021/01/20 13:20:23;;;;;;;5.15;3.22;;;;;;;;;;5029005;28;20088;-71
2021/01/20 13:22:50;;;;;;;4.78;2.85;;;;;;;;;;5030250;28;20037;-73
2021/01/20 13:25:17;;;;;;;4.68;3.42;;;;;;;;;;5012411;28;20045;-72
2021/01/20 13:27:44;;;;;;;5.80;3.75;;;;;;;;;;5028674;28;20047;-71
2021/01/20 13:30:10;;;;;;;5.43;3.50;;;;;;;;;;5028779;28;21050;-74
2021/01/20 13:32:37;;;;;;;4.40;3.00;;;;;;;;;;5029948;28;20053;-71
2021/01/20 13:35:04;;;;;;;4.88;3.35;;;;;;;;;;5030165;28;20053;-74
2021/01/20 13:37:30;;;;;;;6.30;3.20;;;;;;;;;;5026883;28;20057;-73
2021/01/20 13:39:56;;;;;;;6.18;3.10;;;;;;;;;;5028589;28;20064;-73
2021/01/20 13:42:22;;;;;;;5.13;3.40;;;;;;;;;;5029455;28;20052;-74
2021/01/20 13:44:48;;;;;;;6.18;3.53;;;;;;;;;;5030277;28;20053;-75
2021/01/20 13:47:14;;;;;;;5.88;3.67;;;;;;;;;;5027066;28;20053;-72
2021/01/20 13:49:44;;;;;;;7.55;4.20;;;;;;;;;;5029767;28;20049;-72
2021/01/20 13:52:11;;;;;;;7.35;3.28;;;;;;;;;;5028138;28;20140;-74
2021/01/20 13:54:41;;;;;;;8.32;3.38;;;;;;;;;;5031025;28;20046;-74
2021/01/20 13:57:11;;;;;;;4.45;2.80;;;;;;;;;;5022327;28;20060;-77
2021/01/20 13:59:37;;;;;;;4.90;3.22;;;;;;;;;;5006908;28;20132;-74
2021/01/20 14:02:05;;;;;;;4.07;2.80;;;;;;;;;;5030299;28;20049;-72
2021/01/20 14:04:32;;;;;;;6.22;3.90;;;;;;;;;;5029808;28;20049;-72
2021/01/20 14:07:02;;;;;;;6.72;3.70;;;;;;;;;;5030123;28;20057;-74
2021/01/20 14:09:29;;;;;;;7.00;3.53;;;;;;;;;;4997558;28;20049;-74
2021/01/20 14:11:56;;;;;;;6.80;2.80;;;;;;;;;;5030166;28;20103;-74
2021/01/20 14:14:37;;;;;;;4.93;3.50;;;;;;;;;;5006715;28;20054;-74
2021/01/20 14:17:03;;;;;;;6.78;3.05;;;;;;;;;;5029348;28;20050;-74
2021/01/20 14:19:29;;;;;;;6.43;3.85;;;;;;;;;;5031664;28;20053;-75
2021/01/20 14:21:57;;;;;;;4.85;3.22;;;;;;;;;;5013029;28;20088;-81
2021/01/20 14:24:24;;;;;;;6.00;3.70;;;;;;;;;;5013369;28;20508;-75
2021/01/20 14:26:54;;;;;;;4.47;2.92;;;;;;;;;;5011303;28;20489;-75
2021/01/20 14:29:22;;;;;;;6.20;3.13;;;;;;;;;;5012236;28;20045;-74
2021/01/20 14:31:51;;;;;;;4.63;2.92;;;;;;;;;;4996381;28;20096;-76
2021/01/20 14:34:24;;;;;;;6.13;3.03;;;;;;;;;;5013268;28;20061;-74
2021/01/20 14:36:55;;;;;;;3.25;2.70;;;;;;;;;;5029825;28;20049;-75
2021/01/20 14:39:22;;;;;;;6.93;3.92;;;;;;;;;;5026918;28;20132;-74
2021/01/20 14:41:48;;;;;;;4.38;3.00;;;;;;;;;;5010185;28;20045;-73
2021/01/20 14:44:14;;;;;;;4.63;2.88;;;;;;;;;;5028135;28;20053;-74
2021/01/20 14:46:42;;;;;;;5.50;3.17;;;;;;;;;;5028558;28;20073;-75
2021/01/20 14:49:08;;;;;;;5.00;4.32;;;;;;;;;;5012980;28;20075;-72